createdAt,value
2023-01-27T00:01:23.753Z,6.97
2023-01-27T00:03:51.233Z,6.83
2023-01-27T00:06:18.629Z,6.82
2023-01-27T00:08:46.172Z,6.81
2023-01-27T00:11:32.209Z,6.80
2023-01-27T00:13:59.838Z,6.74
2023-01-27T00:16:27.407Z,6.71
2023-01-27T00:18:54.955Z,6.67
2023-01-27T00:21:40.764Z,6.67
2023-01-27T00:24:31.130Z,6.66
2023-01-27T00:26:58.648Z,6.48
2023-01-27T00:29:26.432Z,6.58
2023-01-27T00:32:12.431Z,6.44
2023-01-27T00:34:41.542Z,6.43
2023-01-27T00:37:08.943Z,6.51
2023-01-27T00:39:36.313Z,6.51
2023-01-27T00:42:03.603Z,6.49
2023-01-27T00:44:31.120Z,6.44
2023-01-27T00:46:59.553Z,6.43
2023-01-27T00:49:27.274Z,6.44
2023-01-27T00:51:55.155Z,6.48
2023-01-27T00:54:22.666Z,6.52
2023-01-27T00:56:50.371Z,6.57
2023-01-27T00:59:17.770Z,6.57
2023-01-27T01:01:45.992Z,6.58
2023-01-27T01:04:13.553Z,6.65
2023-01-27T01:06:40.802Z,6.78
2023-01-27T01:09:08.149Z,6.78
2023-01-27T01:11:35.541Z,6.73
2023-01-27T01:14:03.335Z,6.59
2023-01-27T01:16:30.816Z,6.58
2023-01-27T01:18:58.656Z,6.61
2023-01-27T01:21:26.494Z,6.56
2023-01-27T01:23:54.076Z,6.57
2023-01-27T01:26:22.380Z,6.64
2023-01-27T01:28:49.941Z,6.64
2023-01-27T01:31:19.231Z,6.60
2023-01-27T01:33:48.036Z,6.53
2023-01-27T01:36:17.813Z,6.50
2023-01-27T01:38:46.679Z,6.55
2023-01-27T01:41:17.820Z,6.57
2023-01-27T01:43:45.662Z,6.56
2023-01-27T01:46:14.254Z,6.56
2023-01-27T01:49:01.541Z,6.51
2023-01-27T01:51:35.041Z,6.54
2023-01-27T01:54:11.853Z,6.61
2023-01-27T01:56:45.470Z,6.58
2023-01-27T01:59:19.079Z,6.50
2023-01-27T02:01:46.800Z,6.65
2023-01-27T02:04:23.889Z,6.48
2023-01-27T02:07:11.672Z,6.46
2023-01-27T02:09:39.490Z,6.41
2023-01-27T02:12:07.030Z,6.39
2023-01-27T02:14:38.190Z,6.29
2023-01-27T02:17:06.065Z,6.28
2023-01-27T02:19:53.268Z,6.24
2023-01-27T02:22:33.929Z,6.21
2023-01-27T02:25:16.683Z,6.21
2023-01-27T02:27:44.311Z,6.15
2023-01-27T02:30:12.254Z,6.09
2023-01-27T02:32:40.856Z,6.01
2023-01-27T02:35:14.107Z,6.05
2023-01-27T02:37:42.190Z,5.98
2023-01-27T02:40:12.252Z,5.93
2023-01-27T02:42:39.909Z,5.94
2023-01-27T02:45:07.398Z,5.99
2023-01-27T02:47:35.113Z,5.94
2023-01-27T02:50:02.411Z,5.95
2023-01-27T02:52:30.480Z,5.91
2023-01-27T02:54:58.726Z,6.01
2023-01-27T02:57:27.129Z,5.83
2023-01-27T03:00:18.301Z,5.88
2023-01-27T03:02:45.848Z,5.96
2023-01-27T03:05:14.322Z,5.91
2023-01-27T03:07:42.455Z,6.05
2023-01-27T03:10:10.539Z,6.03
2023-01-27T03:12:38.155Z,6.18
2023-01-27T03:15:24.847Z,6.06
2023-01-27T03:18:11.111Z,6.09
2023-01-27T03:20:40.501Z,6.07
2023-01-27T03:23:08.185Z,6.08
2023-01-27T03:25:40.256Z,6.23
2023-01-27T03:28:07.861Z,6.25
2023-01-27T03:30:43.594Z,6.22
2023-01-27T03:33:17.619Z,6.31
2023-01-27T03:36:12.747Z,6.22
2023-01-27T03:39:06.224Z,6.17
2023-01-27T03:41:53.125Z,6.22
2023-01-27T03:44:40.657Z,6.23
2023-01-27T03:47:08.206Z,6.30
2023-01-27T03:49:35.423Z,6.17
2023-01-27T03:52:03.035Z,6.20
2023-01-27T03:54:30.412Z,6.16
2023-01-27T03:56:57.735Z,6.24
2023-01-27T03:59:24.998Z,6.20
2023-01-27T04:01:52.434Z,6.04
2023-01-27T04:04:38.564Z,6.13
2023-01-27T04:07:06.310Z,6.11
2023-01-27T04:09:36.042Z,6.08
2023-01-27T04:12:06.487Z,6.15
2023-01-27T04:14:38.095Z,6.21
2023-01-27T04:17:07.991Z,6.12
2023-01-27T04:19:35.555Z,6.13
2023-01-27T04:22:04.016Z,6.13
2023-01-27T04:24:31.751Z,6.18
2023-01-27T04:27:01.560Z,6.15
2023-01-27T04:29:37.637Z,6.14
2023-01-27T04:32:09.609Z,6.13
2023-01-27T04:34:38.429Z,6.17
2023-01-27T04:37:08.065Z,6.05
2023-01-27T04:39:35.856Z,5.92
2023-01-27T04:42:03.777Z,5.97
2023-01-27T04:44:31.539Z,5.79
2023-01-27T04:46:59.136Z,5.80
2023-01-27T04:49:29.339Z,5.78
2023-01-27T04:51:56.903Z,5.74
2023-01-27T04:54:24.215Z,5.67
2023-01-27T04:56:58.984Z,5.60
2023-01-27T04:59:27.050Z,5.47
2023-01-27T05:01:54.686Z,5.50
2023-01-27T05:04:22.320Z,5.57
2023-01-27T05:06:49.613Z,5.41
2023-01-27T05:09:17.468Z,5.42
2023-01-27T05:11:44.914Z,5.46
2023-01-27T05:14:13.978Z,5.39
2023-01-27T05:16:41.458Z,5.36
2023-01-27T05:19:09.648Z,5.41
2023-01-27T05:21:37.207Z,5.34
2023-01-27T05:24:05.051Z,5.21
2023-01-27T05:26:32.712Z,5.19
2023-01-27T05:29:00.385Z,5.11
2023-01-27T05:31:31.628Z,5.13
2023-01-27T05:34:00.930Z,5.00
2023-01-27T05:36:29.828Z,5.10
2023-01-27T05:38:59.281Z,5.12
2023-01-27T05:41:29.379Z,5.14
2023-01-27T05:43:57.235Z,4.97
2023-01-27T05:46:27.669Z,5.13
2023-01-27T05:48:57.902Z,5.09
2023-01-27T05:51:28.706Z,5.05
2023-01-27T05:53:56.312Z,5.16
2023-01-27T05:56:24.155Z,5.15
2023-01-27T05:58:53.955Z,5.05
2023-01-27T06:01:23.862Z,4.98
2023-01-27T06:03:51.392Z,5.02
2023-01-27T06:06:20.112Z,5.07
2023-01-27T06:08:48.095Z,5.04
2023-01-27T06:11:16.553Z,5.10
2023-01-27T06:13:44.098Z,5.15
2023-01-27T06:16:12.375Z,5.09
2023-01-27T06:18:40.664Z,5.16
2023-01-27T06:21:10.521Z,5.08
2023-01-27T06:23:39.018Z,5.05
2023-01-27T06:26:14.604Z,4.89
2023-01-27T06:28:42.869Z,4.98
2023-01-27T06:31:17.269Z,4.94
2023-01-27T06:33:45.153Z,5.01
2023-01-27T06:36:18.256Z,5.06
2023-01-27T06:38:46.593Z,4.98
2023-01-27T06:41:14.187Z,5.00
2023-01-27T06:43:41.687Z,4.97
2023-01-27T06:46:09.068Z,4.95
2023-01-27T06:48:38.099Z,4.97
2023-01-27T06:51:05.847Z,4.99
2023-01-27T06:53:35.018Z,4.95
2023-01-27T06:56:02.445Z,4.96
2023-01-27T06:58:30.487Z,4.83
2023-01-27T07:00:57.932Z,4.82
2023-01-27T07:03:26.670Z,4.96
2023-01-27T07:05:54.356Z,4.84
2023-01-27T07:08:21.862Z,4.97
2023-01-27T07:10:49.151Z,5.01
2023-01-27T07:13:16.442Z,4.99
2023-01-27T07:15:43.902Z,4.97
2023-01-27T07:18:14.287Z,4.99
2023-01-27T07:20:42.225Z,5.02
2023-01-27T07:23:10.451Z,5.02
2023-01-27T07:25:37.939Z,4.95
2023-01-27T07:28:06.090Z,4.93
2023-01-27T07:30:34.195Z,4.93
2023-01-27T07:33:13.211Z,4.93
2023-01-27T07:35:42.818Z,5.03
2023-01-27T07:38:12.231Z,5.00
2023-01-27T07:40:39.667Z,4.91
2023-01-27T07:43:07.598Z,5.07
2023-01-27T07:45:35.891Z,5.03
2023-01-27T07:48:05.390Z,5.03
2023-01-27T07:50:33.105Z,5.01
2023-01-27T07:53:02.274Z,5.06
2023-01-27T07:55:30.523Z,5.08
2023-01-27T07:57:58.068Z,5.43
2023-01-27T08:00:26.355Z,5.75
2023-01-27T08:02:55.211Z,6.02
2023-01-27T08:05:30.506Z,6.22
2023-01-27T08:07:59.160Z,6.49
2023-01-27T08:10:26.855Z,6.72
2023-01-27T08:12:54.562Z,6.94
2023-01-27T08:15:22.615Z,7.40
2023-01-27T08:17:56.963Z,7.87
2023-01-27T08:20:26.718Z,8.54
2023-01-27T08:22:54.300Z,9.17
2023-01-27T08:25:22.391Z,9.66
2023-01-27T08:27:51.602Z,10.16
2023-01-27T08:30:19.696Z,10.54
2023-01-27T08:32:49.428Z,10.88
2023-01-27T08:35:17.169Z,11.06
2023-01-27T08:37:47.987Z,11.04
2023-01-27T08:40:16.748Z,10.72
2023-01-27T08:42:44.414Z,10.76
2023-01-27T08:45:12.318Z,10.40
2023-01-27T08:47:39.762Z,10.24
2023-01-27T08:50:07.638Z,10.21
2023-01-27T08:52:35.180Z,9.99
2023-01-27T08:55:02.988Z,10.22
2023-01-27T08:57:32.747Z,9.94
2023-01-27T09:00:00.805Z,9.79
2023-01-27T09:02:28.382Z,9.48
2023-01-27T09:04:55.970Z,9.52
2023-01-27T09:07:23.587Z,9.46
2023-01-27T09:09:55.999Z,9.29
2023-01-27T09:12:28.725Z,9.12
2023-01-27T09:14:58.315Z,9.56
2023-01-27T09:17:25.946Z,10.08
2023-01-27T09:19:53.449Z,10.29
2023-01-27T09:22:20.850Z,10.37
2023-01-27T09:24:48.092Z,10.57
2023-01-27T09:27:15.309Z,10.61
2023-01-27T09:29:42.692Z,10.42
2023-01-27T09:32:12.850Z,10.60
2023-01-27T09:34:40.655Z,10.31
2023-01-27T09:37:12.973Z,10.20
2023-01-27T09:39:47.603Z,9.95
2023-01-27T09:42:30.362Z,10.39
2023-01-27T09:45:19.992Z,10.45
2023-01-27T09:47:53.319Z,10.17
2023-01-27T09:50:35.542Z,9.52
2023-01-27T09:53:09.360Z,9.63
2023-01-27T09:55:58.217Z,9.82
2023-01-27T09:58:34.353Z,9.74
2023-01-27T10:01:26.608Z,10.10
2023-01-27T10:04:15.409Z,10.22
2023-01-27T10:06:58.195Z,9.86
2023-01-27T10:09:57.902Z,10.31
2023-01-27T10:12:49.710Z,10.28
2023-01-27T10:15:37.386Z,10.62
2023-01-27T10:18:29.730Z,10.57
2023-01-27T10:21:09.555Z,10.47
2023-01-27T10:24:00.182Z,10.57
2023-01-27T10:26:50.232Z,10.35
2023-01-27T10:29:23.955Z,10.34
2023-01-27T10:31:58.175Z,10.49
2023-01-27T10:34:33.560Z,10.66
2023-01-27T10:37:15.545Z,10.03
2023-01-27T10:40:06.747Z,9.73
2023-01-27T10:42:50.335Z,9.68
2023-01-27T10:45:41.035Z,9.44
2023-01-27T10:48:17.597Z,9.32
2023-01-27T10:51:00.765Z,8.99
2023-01-27T10:53:39.951Z,9.40
2023-01-27T10:56:10.694Z,8.67
2023-01-27T10:58:41.076Z,8.55
2023-01-27T11:01:20.769Z,8.33
2023-01-27T11:03:57.954Z,8.24
2023-01-27T11:06:30.899Z,8.17
2023-01-27T11:09:27.198Z,7.96
2023-01-27T11:11:58.467Z,8.16
2023-01-27T11:14:50.310Z,8.22
2023-01-27T11:17:43.408Z,8.14
2023-01-27T11:20:27.983Z,7.84
2023-01-27T11:23:04.604Z,7.93
2023-01-27T11:25:41.207Z,7.94
2023-01-27T11:28:22.259Z,7.94
2023-01-27T11:31:06.221Z,7.80
2023-01-27T11:33:44.368Z,7.75
2023-01-27T11:36:12.122Z,7.74
2023-01-27T11:38:39.654Z,7.64
2023-01-27T11:41:07.657Z,7.68
2023-01-27T11:43:37.507Z,7.77
2023-01-27T11:46:10.977Z,7.73
2023-01-27T11:48:43.173Z,7.76
2023-01-27T11:51:25.580Z,7.78
2023-01-27T11:54:14.840Z,7.75
2023-01-27T11:56:47.292Z,7.59
2023-01-27T11:59:23.719Z,7.46
2023-01-27T12:01:57.064Z,7.42
2023-01-27T12:04:39.495Z,7.47
2023-01-27T12:07:16.401Z,7.63
2023-01-27T12:09:44.000Z,7.74
2023-01-27T12:12:22.838Z,7.67
2023-01-27T12:14:56.089Z,7.67
2023-01-27T12:17:43.289Z,7.65
2023-01-27T12:20:29.003Z,7.61
2023-01-27T12:23:23.491Z,7.82
2023-01-27T12:25:57.980Z,7.90
2023-01-27T12:28:34.386Z,7.75
2023-01-27T12:31:20.811Z,7.67
2023-01-27T12:33:59.759Z,7.82
2023-01-27T12:36:30.261Z,7.91
2023-01-27T12:39:02.292Z,7.83
2023-01-27T12:41:36.703Z,7.79
2023-01-27T12:44:19.066Z,7.72
2023-01-27T12:47:00.110Z,7.71
2023-01-27T12:49:36.952Z,7.66
2023-01-27T12:52:08.672Z,7.72
2023-01-27T12:54:36.425Z,7.58
2023-01-27T12:57:19.581Z,7.65
2023-01-27T12:59:57.385Z,7.58
2023-01-27T13:02:34.513Z,7.49
2023-01-27T13:05:09.500Z,7.40
2023-01-27T13:07:50.811Z,7.25
2023-01-27T13:10:27.782Z,7.16
2023-01-27T13:12:57.675Z,7.18
2023-01-27T13:15:28.673Z,7.24
2023-01-27T13:18:12.887Z,7.13
2023-01-27T13:20:49.839Z,7.10
2023-01-27T13:23:38.937Z,7.06
2023-01-27T13:26:09.802Z,7.14
2023-01-27T13:29:06.578Z,7.20
2023-01-27T13:31:58.894Z,7.24
2023-01-27T13:34:46.054Z,7.21
2023-01-27T13:37:26.861Z,7.20
2023-01-27T13:40:20.601Z,7.17
2023-01-27T13:42:54.664Z,7.23
2023-01-27T13:45:28.240Z,7.31
2023-01-27T13:48:03.951Z,7.36
2023-01-27T13:50:39.148Z,7.44
2023-01-27T13:53:12.759Z,7.62
2023-01-27T13:56:04.479Z,7.56
2023-01-27T13:59:03.321Z,7.52
2023-01-27T14:01:55.469Z,7.46
2023-01-27T14:04:44.447Z,7.55
2023-01-27T14:07:39.656Z,7.66
2023-01-27T14:10:13.728Z,7.62
2023-01-27T14:13:15.318Z,7.68
2023-01-27T14:15:57.568Z,7.85
2023-01-27T14:18:47.988Z,7.89
2023-01-27T14:21:40.041Z,8.16
2023-01-27T14:24:20.739Z,8.17
2023-01-27T14:26:54.531Z,8.19
2023-01-27T14:29:28.939Z,8.28
2023-01-27T14:31:59.417Z,8.22
2023-01-27T14:34:56.256Z,8.29
2023-01-27T14:37:28.930Z,8.34
2023-01-27T14:40:17.425Z,8.50
2023-01-27T14:43:03.737Z,8.43
2023-01-27T14:45:34.240Z,8.38
2023-01-27T14:48:38.650Z,8.43
2023-01-27T14:51:28.249Z,8.44
2023-01-27T14:54:14.557Z,8.39
2023-01-27T14:56:54.145Z,8.39
2023-01-27T14:59:55.372Z,8.29
2023-01-27T15:02:48.504Z,8.24
2023-01-27T15:05:25.110Z,8.26
2023-01-27T15:08:01.584Z,8.23
2023-01-27T15:10:31.769Z,8.28
2023-01-27T15:13:23.102Z,8.27
2023-01-27T15:15:56.267Z,8.30
2023-01-27T15:18:23.777Z,8.24
2023-01-27T15:20:54.047Z,8.30
2023-01-27T15:23:33.765Z,8.27
2023-01-27T15:26:06.688Z,8.17
2023-01-27T15:28:39.722Z,8.13
2023-01-27T15:31:17.943Z,7.95
2023-01-27T15:33:48.856Z,7.92
2023-01-27T15:36:28.251Z,7.87
2023-01-27T15:39:02.213Z,7.67
2023-01-27T15:41:29.973Z,7.72
2023-01-27T15:44:17.380Z,7.85
2023-01-27T15:46:51.315Z,7.85
2023-01-27T15:49:31.697Z,7.84
2023-01-27T15:52:16.132Z,7.90
2023-01-27T15:54:46.929Z,7.83
2023-01-27T15:57:34.758Z,7.77
2023-01-27T16:00:29.615Z,7.97
2023-01-27T16:03:04.287Z,7.86
2023-01-27T16:05:44.437Z,7.90
2023-01-27T16:08:14.877Z,7.85
2023-01-27T16:10:43.467Z,7.85
2023-01-27T16:13:26.671Z,7.87
2023-01-27T16:16:21.303Z,7.90
2023-01-27T16:19:04.996Z,7.90
2023-01-27T16:21:41.435Z,7.88
2023-01-27T16:24:28.583Z,7.81
2023-01-27T16:27:00.893Z,7.72
2023-01-27T16:29:51.188Z,7.77
2023-01-27T16:32:21.493Z,7.71
2023-01-27T16:34:50.595Z,7.75
2023-01-27T16:37:27.635Z,7.74
2023-01-27T16:40:01.180Z,7.75
2023-01-27T16:42:34.208Z,7.62
2023-01-27T16:45:15.297Z,7.64
2023-01-27T16:47:49.545Z,7.66
2023-01-27T16:50:32.071Z,7.68
2023-01-27T16:53:01.056Z,7.68
2023-01-27T16:55:28.637Z,7.74
2023-01-27T16:57:57.832Z,7.64
2023-01-27T17:00:28.967Z,7.52
2023-01-27T17:02:59.735Z,7.46
2023-01-27T17:05:27.633Z,7.52
2023-01-27T17:08:16.402Z,7.56
2023-01-27T17:11:20.835Z,7.52
2023-01-27T17:14:01.582Z,7.40
2023-01-27T17:16:34.570Z,7.29
2023-01-27T17:19:14.156Z,7.25
2023-01-27T17:21:50.154Z,7.34
2023-01-27T17:24:32.423Z,7.21
2023-01-27T17:27:05.766Z,7.14
2023-01-27T17:29:40.051Z,7.05
2023-01-27T17:32:27.573Z,7.01
2023-01-27T17:34:58.837Z,7.04
2023-01-27T17:37:26.848Z,6.98
2023-01-27T17:39:56.118Z,7.04
2023-01-27T17:42:26.373Z,6.97
2023-01-27T17:44:53.860Z,6.97
2023-01-27T17:47:22.306Z,6.94
2023-01-27T17:49:51.229Z,6.92
2023-01-27T17:52:23.289Z,6.89
2023-01-27T17:54:52.405Z,7.01
2023-01-27T17:57:24.304Z,6.93
2023-01-27T18:00:07.002Z,6.84
2023-01-27T18:02:51.865Z,6.88
2023-01-27T18:05:24.095Z,6.86
2023-01-27T18:07:52.251Z,6.95
2023-01-27T18:10:24.271Z,6.92
2023-01-27T18:12:52.292Z,6.84
2023-01-27T18:15:32.178Z,6.83
2023-01-27T18:18:01.230Z,6.85
2023-01-27T18:20:31.034Z,6.83
2023-01-27T18:22:58.669Z,6.78
2023-01-27T18:25:26.261Z,6.62
2023-01-27T18:27:55.617Z,6.52
2023-01-27T18:30:24.515Z,6.51
2023-01-27T18:32:59.751Z,6.45
2023-01-27T18:35:30.106Z,6.43
2023-01-27T18:38:24.624Z,6.33
2023-01-27T18:40:52.387Z,6.23
2023-01-27T18:43:19.931Z,6.32
2023-01-27T18:45:47.460Z,6.23
2023-01-27T18:48:17.623Z,6.20
2023-01-27T18:50:47.444Z,6.19
2023-01-27T18:53:19.499Z,6.19
2023-01-27T18:55:47.432Z,6.17
2023-01-27T18:58:14.876Z,6.04
2023-01-27T19:00:42.240Z,6.09
2023-01-27T19:03:15.784Z,6.16
2023-01-27T19:05:43.833Z,6.25
2023-01-27T19:08:29.343Z,6.16
2023-01-27T19:10:56.776Z,6.11
2023-01-27T19:13:24.261Z,6.07
2023-01-27T19:15:53.081Z,6.14
2023-01-27T19:18:33.846Z,6.07
2023-01-27T19:21:02.180Z,6.08
2023-01-27T19:23:29.745Z,6.05
2023-01-27T19:26:00.183Z,6.04
2023-01-27T19:28:33.885Z,5.99
2023-01-27T19:31:01.973Z,6.03
2023-01-27T19:33:32.703Z,6.05
2023-01-27T19:36:10.793Z,6.14
2023-01-27T19:38:38.299Z,6.00
2023-01-27T19:41:05.813Z,6.04
2023-01-27T19:43:33.124Z,6.14
2023-01-27T19:46:00.669Z,6.14
2023-01-27T19:48:28.284Z,6.16
2023-01-27T19:50:55.675Z,6.19
2023-01-27T19:53:23.166Z,6.12
2023-01-27T19:55:50.640Z,6.08
2023-01-27T19:58:22.836Z,6.19
2023-01-27T20:00:51.079Z,6.20
2023-01-27T20:03:18.564Z,6.12
2023-01-27T20:05:46.905Z,6.17
2023-01-27T20:08:16.852Z,6.22
2023-01-27T20:10:45.139Z,6.17
2023-01-27T20:13:18.022Z,6.06
2023-01-27T20:15:46.519Z,5.99
2023-01-27T20:18:18.490Z,5.93
2023-01-27T20:20:47.226Z,5.94
2023-01-27T20:23:15.750Z,5.94
2023-01-27T20:25:43.278Z,5.99
2023-01-27T20:28:10.962Z,5.90
2023-01-27T20:30:38.923Z,5.78
2023-01-27T20:33:08.146Z,5.77
2023-01-27T20:35:40.984Z,5.72
2023-01-27T20:38:08.589Z,5.61
2023-01-27T20:40:36.161Z,5.71
2023-01-27T20:43:03.836Z,5.63
2023-01-27T20:45:32.617Z,5.57
2023-01-27T20:48:02.282Z,5.53
2023-01-27T20:50:29.837Z,5.48
2023-01-27T20:52:57.603Z,5.35
2023-01-27T20:55:24.884Z,5.29
2023-01-27T20:57:52.674Z,5.31
2023-01-27T21:00:22.166Z,5.28
2023-01-27T21:02:49.783Z,5.19
2023-01-27T21:05:17.620Z,5.38
2023-01-27T21:07:45.414Z,5.22
2023-01-27T21:10:12.835Z,5.26
2023-01-27T21:12:42.871Z,5.17
2023-01-27T21:15:11.034Z,5.14
2023-01-27T21:17:38.660Z,5.12
2023-01-27T21:20:06.829Z,5.14
2023-01-27T21:22:34.660Z,4.89
2023-01-27T21:25:02.436Z,4.87
2023-01-27T21:27:29.908Z,4.74
2023-01-27T21:29:57.491Z,4.79
2023-01-27T21:32:25.771Z,4.71
2023-01-27T21:34:53.145Z,4.77
2023-01-27T21:37:20.520Z,4.96
2023-01-27T21:39:47.931Z,5.04
2023-01-27T21:42:15.339Z,4.95
2023-01-27T21:45:00.856Z,4.72
2023-01-27T21:47:28.300Z,4.62
2023-01-27T21:50:01.521Z,4.50
2023-01-27T21:52:39.233Z,4.35
2023-01-27T21:55:20.527Z,4.27
2023-01-27T21:57:50.968Z,4.51
2023-01-27T22:00:22.666Z,4.36
2023-01-27T22:03:00.712Z,4.39
2023-01-27T22:05:29.929Z,4.43
2023-01-27T22:07:58.580Z,4.37
2023-01-27T22:10:29.046Z,4.42
2023-01-27T22:12:59.175Z,4.30
2023-01-27T22:15:30.837Z,4.34
2023-01-27T22:18:01.670Z,4.43
2023-01-27T22:20:29.318Z,4.45
2023-01-27T22:22:56.853Z,4.24
2023-01-27T22:25:27.190Z,4.21
2023-01-27T22:27:55.951Z,4.29
2023-01-27T22:30:23.459Z,4.24
2023-01-27T22:32:51.116Z,4.38
2023-01-27T22:35:19.147Z,4.38
2023-01-27T22:37:48.991Z,4.29
2023-01-27T22:40:16.906Z,4.48
2023-01-27T22:42:44.428Z,4.42
2023-01-27T22:45:12.129Z,4.52
2023-01-27T22:47:39.677Z,4.53
2023-01-27T22:50:07.913Z,4.51
2023-01-27T22:52:36.838Z,4.29
2023-01-27T22:55:09.659Z,4.30
2023-01-27T22:57:37.875Z,4.30
2023-01-27T23:00:07.430Z,4.07
2023-01-27T23:02:36.210Z,4.04
2023-01-27T23:05:04.147Z,4.06
2023-01-27T23:07:31.750Z,3.89
2023-01-27T23:09:59.008Z,3.86
2023-01-27T23:12:26.373Z,3.96
2023-01-27T23:14:53.616Z,4.07
2023-01-27T23:17:23.456Z,4.13
2023-01-27T23:19:50.881Z,4.08
2023-01-27T23:22:18.484Z,4.03
2023-01-27T23:24:45.803Z,4.06
2023-01-27T23:27:15.676Z,4.12
2023-01-27T23:29:42.967Z,4.24
2023-01-27T23:32:10.885Z,4.29
2023-01-27T23:34:38.363Z,4.42
2023-01-27T23:37:05.893Z,4.46
2023-01-27T23:39:33.277Z,4.52
2023-01-27T23:42:00.624Z,4.54
2023-01-27T23:44:28.006Z,4.61
2023-01-27T23:46:55.302Z,4.78
2023-01-27T23:49:25.804Z,4.73
2023-01-27T23:51:53.383Z,4.72
2023-01-27T23:54:20.628Z,4.77
2023-01-27T23:56:52.691Z,4.89
2023-01-27T23:59:20.427Z,4.75
